createdAt,value
2023-03-01T00:02:59.493Z,982.97
2023-03-01T00:07:59.427Z,982.96
2023-03-01T00:12:59.407Z,982.89
2023-03-01T00:17:59.603Z,982.91
2023-03-01T00:22:59.232Z,982.82
2023-03-01T00:27:59.194Z,982.76
2023-03-01T00:32:59.132Z,982.72
2023-03-01T00:37:59.152Z,982.69
2023-03-01T00:42:59.024Z,982.60
2023-03-01T00:47:58.949Z,982.62
2023-03-01T00:52:58.938Z,982.63
2023-03-01T00:57:58.848Z,982.62
2023-03-01T01:02:58.784Z,982.47
2023-03-01T01:07:58.783Z,982.54
2023-03-01T01:12:58.667Z,982.45
2023-03-01T01:17:58.603Z,982.38
2023-03-01T01:22:58.525Z,982.38
2023-03-01T01:27:59.425Z,982.26
2023-03-01T01:32:58.420Z,982.24
2023-03-01T01:37:58.358Z,982.12
2023-03-01T01:42:58.299Z,982.09
2023-03-01T01:47:58.273Z,981.99
2023-03-01T01:52:58.181Z,981.97
2023-03-01T01:57:58.127Z,981.90
2023-03-01T02:02:58.148Z,981.84
2023-03-01T02:07:57.985Z,981.70
2023-03-01T02:12:57.975Z,981.66
2023-03-01T02:17:58.268Z,981.64
2023-03-01T02:22:57.819Z,981.58
2023-03-01T02:27:57.795Z,981.48
2023-03-01T02:32:57.706Z,981.43
2023-03-01T02:37:57.665Z,981.41
2023-03-01T02:42:57.568Z,981.45
2023-03-01T02:47:57.587Z,981.38
2023-03-01T02:52:57.484Z,981.44
2023-03-01T02:57:57.413Z,981.38
2023-03-01T03:02:57.358Z,981.37
2023-03-01T03:07:57.323Z,981.26
2023-03-01T03:12:58.156Z,981.20
2023-03-01T03:17:57.163Z,981.20
2023-03-01T03:22:57.100Z,981.11
2023-03-01T03:27:57.043Z,981.19
2023-03-01T03:32:56.961Z,981.16
2023-03-01T03:37:56.964Z,981.25
2023-03-01T03:42:56.873Z,981.18
2023-03-01T03:47:56.803Z,981.15
2023-03-01T03:52:56.765Z,981.03
2023-03-01T03:57:56.656Z,981.08
2023-03-01T04:02:56.663Z,981.08
2023-03-01T04:07:56.536Z,981.11
2023-03-01T04:12:56.466Z,981.17
2023-03-01T04:17:56.416Z,981.14
2023-03-01T04:22:56.329Z,981.09
2023-03-01T04:27:56.319Z,980.99
2023-03-01T04:32:56.272Z,981.04
2023-03-01T04:37:56.226Z,981.06
2023-03-01T04:42:56.188Z,981.16
2023-03-01T04:47:56.007Z,981.15
2023-03-01T04:52:55.985Z,981.15
2023-03-01T04:57:55.916Z,981.10
2023-03-01T05:02:55.913Z,981.10
2023-03-01T05:07:55.779Z,981.05
2023-03-01T05:12:55.798Z,981.11
2023-03-01T05:17:55.682Z,981.18
2023-03-01T05:22:55.665Z,981.04
2023-03-01T05:27:55.578Z,981.00
2023-03-01T05:32:55.509Z,981.11
2023-03-01T05:37:55.461Z,981.10
2023-03-01T05:42:55.423Z,981.02
2023-03-01T05:47:55.294Z,980.96
2023-03-01T05:52:55.248Z,980.99
2023-03-01T05:57:55.191Z,980.92
2023-03-01T06:02:55.159Z,981.03
2023-03-01T06:07:55.045Z,981.02
2023-03-01T06:12:55.020Z,981.11
2023-03-01T06:17:54.983Z,981.01
2023-03-01T06:22:54.894Z,981.00
2023-03-01T06:27:54.833Z,981.03
2023-03-01T06:32:54.768Z,981.03
2023-03-01T06:37:54.720Z,981.03
2023-03-01T06:42:54.652Z,981.09
2023-03-01T06:47:54.568Z,981.11
2023-03-01T06:52:54.547Z,981.07
2023-03-01T06:57:54.463Z,980.99
2023-03-01T07:02:54.466Z,980.95
2023-03-01T07:07:54.333Z,980.96
2023-03-01T07:12:54.274Z,980.92
2023-03-01T07:17:54.203Z,980.88
2023-03-01T07:22:54.150Z,980.78
2023-03-01T07:27:54.086Z,980.72
2023-03-01T07:32:55.704Z,980.83
2023-03-01T07:37:53.954Z,980.84
2023-03-01T07:42:53.953Z,980.81
2023-03-01T07:47:53.846Z,980.81
2023-03-01T07:52:53.785Z,980.69
2023-03-01T07:57:53.707Z,980.63
2023-03-01T08:02:53.649Z,980.64
2023-03-01T08:07:53.606Z,980.53
2023-03-01T08:12:53.543Z,980.60
2023-03-01T08:17:53.452Z,980.58
2023-03-01T08:22:53.424Z,980.49
2023-03-01T08:27:53.343Z,980.54
2023-03-01T08:32:53.482Z,980.44
2023-03-01T08:37:53.244Z,980.41
2023-03-01T08:42:53.175Z,980.53
2023-03-01T08:47:53.118Z,980.43
2023-03-01T08:52:53.045Z,980.41
2023-03-01T08:57:52.964Z,980.40
2023-03-01T09:02:52.913Z,980.35
2023-03-01T09:07:53.348Z,980.20
2023-03-01T09:12:52.806Z,980.17
2023-03-01T09:17:52.736Z,980.18
2023-03-01T09:22:52.667Z,980.09
2023-03-01T09:27:52.632Z,980.12
2023-03-01T09:32:52.558Z,980.10
2023-03-01T09:37:52.517Z,980.05
2023-03-01T09:42:52.447Z,980.01
2023-03-01T09:47:52.364Z,979.99
2023-03-01T09:52:52.283Z,979.96
2023-03-01T09:57:52.563Z,979.92
2023-03-01T10:02:52.183Z,979.81
2023-03-01T10:07:52.200Z,979.79
2023-03-01T10:12:52.092Z,979.74
2023-03-01T10:17:52.034Z,979.65
2023-03-01T10:22:52.429Z,979.55
2023-03-01T10:27:51.903Z,979.55
2023-03-01T10:32:51.827Z,979.49
2023-03-01T10:37:51.799Z,979.40
2023-03-01T10:42:51.793Z,979.42
2023-03-01T10:47:51.675Z,979.27
2023-03-01T10:52:51.616Z,979.17
2023-03-01T10:57:51.541Z,979.06
2023-03-01T11:02:51.518Z,979.04
2023-03-01T11:07:51.444Z,978.96
2023-03-01T11:12:51.400Z,978.81
2023-03-01T11:17:55.826Z,978.71
2023-03-01T11:22:52.311Z,978.61
2023-03-01T11:27:51.198Z,978.59
2023-03-01T11:32:51.189Z,978.61
2023-03-01T11:37:51.100Z,978.52
2023-03-01T11:42:51.025Z,978.40
2023-03-01T11:47:50.987Z,978.33
2023-03-01T11:52:50.963Z,978.30
2023-03-01T11:57:50.817Z,978.37
2023-03-01T12:02:50.788Z,978.20
2023-03-01T12:07:50.741Z,978.05
2023-03-01T12:12:50.617Z,977.90
2023-03-01T12:17:50.583Z,977.78
2023-03-01T12:22:50.497Z,977.73
2023-03-01T12:27:50.461Z,977.72
2023-03-01T12:32:50.448Z,977.71
2023-03-01T12:37:50.299Z,977.78
2023-03-01T12:42:50.236Z,977.84
2023-03-01T12:47:50.191Z,977.65
2023-03-01T12:52:50.131Z,977.70
2023-03-01T12:57:50.083Z,977.57
2023-03-01T13:02:50.009Z,977.52
2023-03-01T13:07:49.969Z,977.42
2023-03-01T13:12:49.868Z,977.44
2023-03-01T13:17:49.773Z,977.38
2023-03-01T13:22:54.608Z,977.33
2023-03-01T13:27:50.652Z,977.43
2023-03-01T13:32:50.720Z,977.40
2023-03-01T13:37:49.568Z,977.32
2023-03-01T13:42:56.403Z,977.35
2023-03-01T13:47:50.424Z,977.26
2023-03-01T13:52:49.353Z,977.34
2023-03-01T13:57:49.286Z,977.40
2023-03-01T14:02:53.690Z,977.44
2023-03-01T14:07:50.133Z,977.39
2023-03-01T14:12:49.070Z,977.25
2023-03-01T14:17:48.997Z,977.15
2023-03-01T14:22:48.915Z,977.20
2023-03-01T14:27:48.891Z,977.15
2023-03-01T14:32:48.796Z,977.12
2023-03-01T14:37:48.748Z,977.02
2023-03-01T14:42:48.983Z,977.07
2023-03-01T14:47:48.615Z,977.09
2023-03-01T14:52:48.541Z,977.07
2023-03-01T14:57:48.454Z,977.11
2023-03-01T15:02:48.400Z,977.14
2023-03-01T15:07:48.312Z,977.19
2023-03-01T15:12:48.246Z,977.26
2023-03-01T15:17:48.198Z,977.16
2023-03-01T15:22:48.129Z,977.15
2023-03-01T15:27:48.061Z,977.21
2023-03-01T15:32:47.989Z,977.17
2023-03-01T15:37:47.906Z,977.35
2023-03-01T15:42:47.829Z,977.43
2023-03-01T15:47:47.783Z,977.37
2023-03-01T15:52:47.809Z,977.24
2023-03-01T15:57:47.657Z,977.28
2023-03-01T16:02:47.662Z,977.11
2023-03-01T16:07:47.557Z,977.14
2023-03-01T16:12:47.486Z,976.90
2023-03-01T16:17:47.411Z,976.90
2023-03-01T16:22:47.316Z,976.99
2023-03-01T16:27:47.290Z,976.83
2023-03-01T16:32:47.202Z,976.70
2023-03-01T16:37:47.187Z,976.76
2023-03-01T16:42:47.074Z,976.77
2023-03-01T16:47:47.018Z,976.78
2023-03-01T16:52:46.946Z,976.65
2023-03-01T16:57:46.898Z,976.72
2023-03-01T17:02:46.861Z,976.76
2023-03-01T17:07:46.817Z,976.82
2023-03-01T17:12:46.720Z,976.75
2023-03-01T17:17:47.615Z,976.86
2023-03-01T17:22:46.693Z,976.89
2023-03-01T17:27:46.531Z,976.91
2023-03-01T17:32:46.560Z,976.95
2023-03-01T17:37:46.603Z,977.03
2023-03-01T17:42:46.342Z,977.14
2023-03-01T17:47:46.248Z,977.38
2023-03-01T17:52:46.187Z,977.36
2023-03-01T17:57:47.100Z,977.36
2023-03-01T18:02:46.176Z,977.36
2023-03-01T18:07:46.029Z,977.51
2023-03-01T18:12:45.968Z,977.61
2023-03-01T18:17:47.651Z,977.52
2023-03-01T18:22:45.853Z,977.61
2023-03-01T18:27:45.804Z,977.54
2023-03-01T18:32:45.720Z,977.63
2023-03-01T18:37:45.640Z,977.63
2023-03-01T18:42:45.571Z,977.67
2023-03-01T18:47:45.531Z,977.65
2023-03-01T18:52:45.447Z,977.70
2023-03-01T18:57:45.420Z,977.74
2023-03-01T19:02:45.396Z,977.77
2023-03-01T19:07:45.330Z,977.70
2023-03-01T19:12:45.285Z,977.69
2023-03-01T19:17:45.195Z,977.60
2023-03-01T19:22:45.136Z,977.65
2023-03-01T19:27:45.110Z,977.69
2023-03-01T19:32:45.043Z,977.76
2023-03-01T19:37:44.987Z,977.75
2023-03-01T19:42:44.904Z,977.66
2023-03-01T19:47:44.863Z,977.75
2023-03-01T19:52:44.778Z,977.79
2023-03-01T19:57:44.731Z,977.75
2023-03-01T20:02:44.747Z,977.78
2023-03-01T20:07:45.478Z,977.74
2023-03-01T20:12:44.571Z,977.71
2023-03-01T20:17:44.520Z,977.74
2023-03-01T20:22:44.471Z,977.75
2023-03-01T20:27:44.456Z,977.72
2023-03-01T20:32:44.421Z,977.78
2023-03-01T20:37:44.282Z,977.73
2023-03-01T20:42:44.270Z,977.69
2023-03-01T20:47:44.182Z,977.71
2023-03-01T20:52:47.743Z,977.67
2023-03-01T20:57:44.082Z,977.62
2023-03-01T21:02:43.995Z,977.66
2023-03-01T21:07:43.985Z,977.57
2023-03-01T21:12:43.876Z,977.61
2023-03-01T21:17:43.817Z,977.52
2023-03-01T21:22:43.776Z,977.45
2023-03-01T21:27:43.684Z,977.47
2023-03-01T21:32:43.714Z,977.52
2023-03-01T21:37:43.571Z,977.51
2023-03-01T21:42:43.492Z,977.50
2023-03-01T21:47:43.448Z,977.46
2023-03-01T21:52:43.366Z,977.45
2023-03-01T21:57:43.326Z,977.52
2023-03-01T22:02:43.310Z,977.57
2023-03-01T22:07:43.202Z,977.53
2023-03-01T22:12:43.119Z,977.59
2023-03-01T22:17:43.106Z,977.68
2023-03-01T22:22:43.061Z,977.64
2023-03-01T22:27:42.953Z,977.59
2023-03-01T22:32:42.962Z,977.57
2023-03-01T22:37:42.835Z,977.47
2023-03-01T22:42:42.760Z,977.45
2023-03-01T22:47:42.690Z,977.42
2023-03-01T22:52:42.616Z,977.41
2023-03-01T22:57:42.583Z,977.41
2023-03-01T23:02:42.594Z,977.45
2023-03-01T23:07:42.478Z,977.37
2023-03-01T23:12:42.389Z,977.34
2023-03-01T23:17:42.320Z,977.31
2023-03-01T23:22:42.283Z,977.32
2023-03-01T23:27:42.221Z,977.30
2023-03-01T23:32:42.171Z,977.27
2023-03-01T23:37:42.094Z,977.20
2023-03-01T23:42:42.002Z,977.13
2023-03-01T23:47:41.961Z,977.11
2023-03-01T23:52:41.878Z,977.09
2023-03-01T23:57:41.862Z,977.06
